sensor_id;sensor_type;location;lat;lon;timestamp;pressure;altitude;pressure_sealevel;temperature;humidity
80733;BME280;70130;44.534;18.678;2024-03-08T00:02:14;99123.25;;;4.72;100.00
80733;BME280;70130;44.534;18.678;2024-03-08T00:04:39;99139.03;;;4.87;100.00
80733;BME280;70130;44.534;18.678;2024-03-08T00:07:05;99123.69;;;4.79;100.00
80733;BME280;70130;44.534;18.678;2024-03-08T00:09:32;99124.50;;;4.79;100.00
80733;BME280;70130;44.534;18.678;2024-03-08T00:11:58;99130.59;;;4.80;100.00
80733;BME280;70130;44.534;18.678;2024-03-08T00:14:24;99121.34;;;4.77;100.00
80733;BME280;70130;44.534;18.678;2024-03-08T00:16:49;99132.47;;;4.79;100.00
80733;BME280;70130;44.534;18.678;2024-03-08T00:19:15;99137.97;;;4.88;100.00
80733;BME280;70130;44.534;18.678;2024-03-08T00:21:40;99128.97;;;4.84;100.00
80733;BME280;70130;44.534;18.678;2024-03-08T00:24:07;99137.13;;;4.93;100.00
80733;BME280;70130;44.534;18.678;2024-03-08T00:26:33;99137.50;;;4.81;100.00
80733;BME280;70130;44.534;18.678;2024-03-08T00:28:58;99143.41;;;4.78;100.00
80733;BME280;70130;44.534;18.678;2024-03-08T00:31:24;99140.00;;;4.72;100.00
80733;BME280;70130;44.534;18.678;2024-03-08T00:33:50;99095.50;;;4.54;100.00
80733;BME280;70130;44.534;18.678;2024-03-08T00:36:17;99135.91;;;4.80;100.00
80733;BME280;70130;44.534;18.678;2024-03-08T00:38:43;99125.00;;;4.82;100.00
80733;BME280;70130;44.534;18.678;2024-03-08T00:41:08;99137.63;;;4.95;100.00
80733;BME280;70130;44.534;18.678;2024-03-08T00:43:34;99124.69;;;4.88;100.00
80733;BME280;70130;44.534;18.678;2024-03-08T00:46:00;99127.41;;;4.83;100.00
80733;BME280;70130;44.534;18.678;2024-03-08T00:48:26;99129.47;;;4.86;100.00
80733;BME280;70130;44.534;18.678;2024-03-08T00:50:52;99129.47;;;4.86;100.00
80733;BME280;70130;44.534;18.678;2024-03-08T00:53:18;99120.66;;;4.67;100.00
80733;BME280;70130;44.534;18.678;2024-03-08T00:55:43;99137.50;;;4.81;100.00
80733;BME280;70130;44.534;18.678;2024-03-08T00:58:12;99136.81;;;4.70;100.00
80733;BME280;70130;44.534;18.678;2024-03-08T01:00:38;99134.44;;;4.69;100.00
80733;BME280;70130;44.534;18.678;2024-03-08T01:03:06;99131.72;;;4.74;100.00
80733;BME280;70130;44.534;18.678;2024-03-08T01:05:33;99135.69;;;4.76;100.00
80733;BME280;70130;44.534;18.678;2024-03-08T01:07:59;99135.75;;;4.71;100.00
80733;BME280;70130;44.534;18.678;2024-03-08T01:10:24;99133.38;;;4.70;100.00
80733;BME280;70130;44.534;18.678;2024-03-08T01:12:50;99128.03;;;4.70;100.00
80733;BME280;70130;44.534;18.678;2024-03-08T01:15:16;99127.94;;;4.80;100.00
80733;BME280;70130;44.534;18.678;2024-03-08T01:17:41;99129.59;;;4.76;100.00
80733;BME280;70130;44.534;18.678;2024-03-08T01:20:09;99127.19;;;4.74;100.00
80733;BME280;70130;44.534;18.678;2024-03-08T01:22:38;99134.06;;;4.81;100.00
80733;BME280;70130;44.534;18.678;2024-03-08T01:25:04;99130.09;;;4.78;100.00
80733;BME280;70130;44.534;18.678;2024-03-08T01:27:30;99111.59;;;4.68;100.00
80733;BME280;70130;44.534;18.678;2024-03-08T01:29:56;99118.44;;;4.74;100.00
80733;BME280;70130;44.534;18.678;2024-03-08T01:32:22;99126.88;;;4.81;100.00
80733;BME280;70130;44.534;18.678;2024-03-08T01:34:49;99114.44;;;4.76;100.00
80733;BME280;70130;44.534;18.678;2024-03-08T01:37:14;99121.34;;;4.77;100.00
80733;BME280;70130;44.534;18.678;2024-03-08T01:39:40;99118.38;;;4.79;100.00
80733;BME280;70130;44.534;18.678;2024-03-08T01:42:06;99128.69;;;4.86;100.00
80733;BME280;70130;44.534;18.678;2024-03-08T01:44:31;99131.88;;;4.88;100.00
80733;BME280;70130;44.534;18.678;2024-03-08T01:46:57;99113.06;;;4.79;100.00
80733;BME280;70130;44.534;18.678;2024-03-08T01:49:24;99131.44;;;4.99;100.00
80733;BME280;70130;44.534;18.678;2024-03-08T01:51:51;99125.97;;;4.91;100.00
80733;BME280;70130;44.534;18.678;2024-03-08T01:54:18;99119.16;;;4.79;100.00
80733;BME280;70130;44.534;18.678;2024-03-08T01:56:46;99113.75;;;4.90;100.00
80733;BME280;70130;44.534;18.678;2024-03-08T01:59:12;99081.78;;;4.71;100.00
80733;BME280;70130;44.534;18.678;2024-03-08T02:01:40;99123.59;;;4.89;100.00
80733;BME280;70130;44.534;18.678;2024-03-08T02:04:06;99109.78;;;4.87;100.00
80733;BME280;70130;44.534;18.678;2024-03-08T02:06:33;99124.03;;;4.96;100.00
80733;BME280;70130;44.534;18.678;2024-03-08T02:08:59;99116.06;;;4.96;100.00
80733;BME280;70130;44.534;18.678;2024-03-08T02:11:24;99124.63;;;4.93;100.00
80733;BME280;70130;44.534;18.678;2024-03-08T02:13:50;99123.25;;;4.96;100.00
80733;BME280;70130;44.534;18.678;2024-03-08T02:16:22;99122.28;;;4.87;100.00
80733;BME280;70130;44.534;18.678;2024-03-08T02:18:48;99124.22;;;4.81;100.00
80733;BME280;70130;44.534;18.678;2024-03-08T02:21:16;99114.66;;;4.80;100.00
80733;BME280;70130;44.534;18.678;2024-03-08T02:23:46;99124.31;;;4.95;100.00
80733;BME280;70130;44.534;18.678;2024-03-08T02:26:11;99129.63;;;4.95;100.00
80733;BME280;70130;44.534;18.678;2024-03-08T02:28:37;99108.25;;;4.81;100.00
80733;BME280;70130;44.534;18.678;2024-03-08T02:31:03;99123.25;;;4.96;100.00
80733;BME280;70130;44.534;18.678;2024-03-08T02:33:33;99120.88;;;4.94;100.00
80733;BME280;70130;44.534;18.678;2024-03-08T02:35:59;99124.84;;;4.97;100.00
80733;BME280;70130;44.534;18.678;2024-03-08T02:38:24;99118.25;;;4.89;100.00
80733;BME280;70130;44.534;18.678;2024-03-08T02:40:51;99118.22;;;4.94;100.00
80733;BME280;70130;44.534;18.678;2024-03-08T02:43:18;99119.53;;;4.97;100.00
80733;BME280;70130;44.534;18.678;2024-03-08T02:45:44;99112.16;;;4.89;100.00
80733;BME280;70130;44.534;18.678;2024-03-08T02:48:14;99115.34;;;4.91;100.00
80733;BME280;70130;44.534;18.678;2024-03-08T02:50:40;99117.78;;;4.87;100.00
80733;BME280;70130;44.534;18.678;2024-03-08T02:53:08;99109.84;;;4.82;100.00
80733;BME280;70130;44.534;18.678;2024-03-08T02:55:35;99119.38;;;4.88;100.00
80733;BME280;70130;44.534;18.678;2024-03-08T02:58:03;99121.44;;;4.91;100.00
80733;BME280;70130;44.534;18.678;2024-03-08T03:00:30;99111.13;;;4.85;100.00
80733;BME280;70130;44.534;18.678;2024-03-08T03:02:59;99091.84;;;4.74;100.00
80733;BME280;70130;44.534;18.678;2024-03-08T03:05:28;99112.41;;;4.92;100.00
80733;BME280;70130;44.534;18.678;2024-03-08T03:07:55;99124.25;;;5.00;100.00
80733;BME280;70130;44.534;18.678;2024-03-08T03:10:20;99120.75;;;5.04;100.00
80733;BME280;70130;44.534;18.678;2024-03-08T03:12:48;99124.72;;;5.07;100.00
80733;BME280;70130;44.534;18.678;2024-03-08T03:15:17;99121.81;;;5.03;100.00
80733;BME280;70130;44.534;18.678;2024-03-08T03:17:49;99120.31;;;4.97;100.00
80733;BME280;70130;44.534;18.678;2024-03-08T03:20:19;99118.16;;;4.99;100.00
80733;BME280;70130;44.534;18.678;2024-03-08T03:22:58;99135.13;;;5.03;100.00
80733;BME280;70130;44.534;18.678;2024-03-08T03:25:27;99124.72;;;5.07;100.00
80733;BME280;70130;44.534;18.678;2024-03-08T03:27:58;99128.13;;;5.12;100.00
80733;BME280;70130;44.534;18.678;2024-03-08T03:30:24;99124.59;;;5.17;100.00
80733;BME280;70130;44.534;18.678;2024-03-08T03:32:52;99137.22;;;5.06;100.00
80733;BME280;70130;44.534;18.678;2024-03-08T03:35:18;99134.63;;;5.01;100.00
80733;BME280;70130;44.534;18.678;2024-03-08T03:37:46;99132.81;;;4.97;100.00
80733;BME280;70130;44.534;18.678;2024-03-08T03:40:30;99139.69;;;5.03;100.00
80733;BME280;70130;44.534;18.678;2024-03-08T03:42:56;99124.03;;;4.96;100.00
80733;BME280;70130;44.534;18.678;2024-03-08T03:45:25;99133.94;;;4.91;100.00
80733;BME280;70130;44.534;18.678;2024-03-08T03:47:50;99130.22;;;4.92;100.00
80733;BME280;70130;44.534;18.678;2024-03-08T03:50:21;99124.97;;;4.87;100.00
80733;BME280;70130;44.534;18.678;2024-03-08T03:52:47;99128.97;;;4.84;100.00
80733;BME280;70130;44.534;18.678;2024-03-08T03:55:14;99123.38;;;4.86;100.00
80733;BME280;70130;44.534;18.678;2024-03-08T03:57:40;99128.69;;;4.86;100.00
80733;BME280;70130;44.534;18.678;2024-03-08T04:00:07;99124.72;;;4.83;100.00
80733;BME280;70130;44.534;18.678;2024-03-08T04:02:38;99125.81;;;4.82;100.00
80733;BME280;70130;44.534;18.678;2024-03-08T04:05:08;99117.31;;;4.80;100.00
80733;BME280;70130;44.534;18.678;2024-03-08T04:07:35;99124.69;;;4.88;100.00
80733;BME280;70130;44.534;18.678;2024-03-08T04:10:02;99112.16;;;4.89;100.00
80733;BME280;70130;44.534;18.678;2024-03-08T04:12:28;99132.88;;;4.92;100.00
80733;BME280;70130;44.534;18.678;2024-03-08T04:14:55;99113.31;;;4.83;100.00
80733;BME280;70130;44.534;18.678;2024-03-08T04:17:21;99120.66;;;4.91;100.00
80733;BME280;70130;44.534;18.678;2024-03-08T04:19:47;99126.81;;;4.86;100.00
80733;BME280;70130;44.534;18.678;2024-03-08T04:22:15;99116.25;;;4.81;100.00
80733;BME280;70130;44.534;18.678;2024-03-08T04:24:43;99126.81;;;4.86;100.00
80733;BME280;70130;44.534;18.678;2024-03-08T04:27:09;99125.97;;;4.91;100.00
80733;BME280;70130;44.534;18.678;2024-03-08T04:29:35;99118.25;;;4.89;100.00
80733;BME280;70130;44.534;18.678;2024-03-08T04:32:03;99119.38;;;4.88;100.00
80733;BME280;70130;44.534;18.678;2024-03-08T04:34:30;99102.38;;;4.84;100.00
80733;BME280;70130;44.534;18.678;2024-03-08T04:36:59;99118.25;;;4.89;100.00
80733;BME280;70130;44.534;18.678;2024-03-08T04:39:25;99120.88;;;4.94;100.00
80733;BME280;70130;44.534;18.678;2024-03-08T04:41:54;99117.94;;;4.96;100.00
80733;BME280;70130;44.534;18.678;2024-03-08T04:44:23;99094.44;;;4.79;100.00
80733;BME280;70130;44.534;18.678;2024-03-08T04:46:50;99122.25;;;4.92;100.00
80733;BME280;70130;44.534;18.678;2024-03-08T04:49:15;99128.91;;;4.89;100.00
80733;BME280;70130;44.534;18.678;2024-03-08T04:51:41;99128.69;;;4.86;100.00
80733;BME280;70130;44.534;18.678;2024-03-08T04:54:07;99123.41;;;4.81;100.00
80733;BME280;70130;44.534;18.678;2024-03-08T04:56:32;99130.06;;;4.83;100.00
80733;BME280;70130;44.534;18.678;2024-03-08T04:58:59;99125.69;;;4.68;100.00
80733;BME280;70130;44.534;18.678;2024-03-08T05:01:24;99133.41;;;4.65;100.00
80733;BME280;70130;44.534;18.678;2024-03-08T05:03:50;99130.81;;;4.60;100.00
80733;BME280;70130;44.534;18.678;2024-03-08T05:06:16;99134.00;;;4.62;100.00
80733;BME280;70130;44.534;18.678;2024-03-08T05:08:42;99119.94;;;4.56;100.00
80733;BME280;70130;44.534;18.678;2024-03-08T05:11:08;99127.81;;;4.66;100.00
80733;BME280;70130;44.534;18.678;2024-03-08T05:13:34;99145.53;;;4.76;100.00
80733;BME280;70130;44.534;18.678;2024-03-08T05:16:00;99139.69;;;4.74;100.00
80733;BME280;70130;44.534;18.678;2024-03-08T05:18:26;99111.50;;;4.49;100.00
80733;BME280;70130;44.534;18.678;2024-03-08T05:20:54;99146.56;;;4.80;100.00
80733;BME280;70130;44.534;18.678;2024-03-08T05:23:19;99145.31;;;4.72;100.00
80733;BME280;70130;44.534;18.678;2024-03-08T05:25:45;99151.38;;;4.78;100.00
80733;BME280;70130;44.534;18.678;2024-03-08T05:28:14;99140.22;;;4.76;100.00
80733;BME280;70130;44.534;18.678;2024-03-08T05:30:39;99151.81;;;4.85;100.00
80733;BME280;70130;44.534;18.678;2024-03-08T05:33:05;99136.88;;;4.89;100.00
80733;BME280;70130;44.534;18.678;2024-03-08T05:35:31;99153.34;;;4.91;100.00
80733;BME280;70130;44.534;18.678;2024-03-08T05:38:00;99140.00;;;4.96;100.00
80733;BME280;70130;44.534;18.678;2024-03-08T05:40:27;99143.25;;;4.93;100.00
80733;BME280;70130;44.534;18.678;2024-03-08T05:42:58;99145.09;;;4.93;100.00
80733;BME280;70130;44.534;18.678;2024-03-08T05:45:25;99133.19;;;4.85;100.00
80733;BME280;70130;44.534;18.678;2024-03-08T05:47:51;99143.25;;;4.93;100.00
80733;BME280;70130;44.534;18.678;2024-03-08T05:50:17;99148.78;;;4.97;100.00
80733;BME280;70130;44.534;18.678;2024-03-08T05:52:43;99150.63;;;4.96;100.00
80733;BME280;70130;44.534;18.678;2024-03-08T05:55:09;99158.63;;;4.96;100.00
80733;BME280;70130;44.534;18.678;2024-03-08T05:57:35;99160.69;;;4.99;100.00
80733;BME280;70130;44.534;18.678;2024-03-08T06:00:05;99163.81;;;5.06;100.00
80733;BME280;70130;44.534;18.678;2024-03-08T06:02:38;99160.38;;;5.06;100.00
80733;BME280;70130;44.534;18.678;2024-03-08T06:05:12;99151.53;;;5.10;100.00
80733;BME280;70130;44.534;18.678;2024-03-08T06:07:38;99166.03;;;4.99;100.00
80733;BME280;70130;44.534;18.678;2024-03-08T06:10:08;99168.13;;;5.02;100.00
80733;BME280;70130;44.534;18.678;2024-03-08T06:12:36;99174.53;;;5.01;100.00
80733;BME280;70130;44.534;18.678;2024-03-08T06:15:07;99164.38;;;5.03;100.00
80733;BME280;70130;44.534;18.678;2024-03-08T06:17:32;99177.81;;;5.17;100.00
80733;BME280;70130;44.534;18.678;2024-03-08T06:19:59;99167.16;;;5.17;100.00
80733;BME280;70130;44.534;18.678;2024-03-08T06:22:25;99182.72;;;5.29;100.00
80733;BME280;70130;44.534;18.678;2024-03-08T06:24:50;99174.09;;;5.18;100.00
80733;BME280;70130;44.534;18.678;2024-03-08T06:27:16;99176.78;;;5.13;100.00
80733;BME280;70130;44.534;18.678;2024-03-08T06:29:42;99173.28;;;5.17;100.00
80733;BME280;70130;44.534;18.678;2024-03-08T06:32:08;99156.22;;;5.18;100.00
80733;BME280;70130;44.534;18.678;2024-03-08T06:34:34;99153.00;;;5.21;100.00
80733;BME280;70130;44.534;18.678;2024-03-08T06:37:02;99172.47;;;5.41;100.00
80733;BME280;70130;44.534;18.678;2024-03-08T06:39:28;99170.16;;;5.34;100.00
80733;BME280;70130;44.534;18.678;2024-03-08T06:41:57;99175.41;;;5.39;100.00
80733;BME280;70130;44.534;18.678;2024-03-08T06:44:23;99177.38;;;5.52;100.00
80733;BME280;70130;44.534;18.678;2024-03-08T06:46:49;99176.28;;;5.53;100.00
80733;BME280;70130;44.534;18.678;2024-03-08T06:49:14;99167.50;;;5.53;100.00
80733;BME280;70130;44.534;18.678;2024-03-08T06:51:41;99188.25;;;5.56;100.00
80733;BME280;70130;44.534;18.678;2024-03-08T06:54:07;99179.25;;;5.52;100.00
80733;BME280;70130;44.534;18.678;2024-03-08T06:56:35;99179.47;;;5.55;100.00
80733;BME280;70130;44.534;18.678;2024-03-08T06:59:00;99174.41;;;5.54;100.00
80733;BME280;70130;44.534;18.678;2024-03-08T07:01:29;99179.69;;;5.59;100.00
80733;BME280;70130;44.534;18.678;2024-03-08T07:03:57;99165.22;;;5.46;100.00
80733;BME280;70130;44.534;18.678;2024-03-08T07:06:23;99184.44;;;5.62;100.00
80733;BME280;70130;44.534;18.678;2024-03-08T07:08:49;99184.38;;;5.67;100.00
80733;BME280;70130;44.534;18.678;2024-03-08T07:11:15;99186.19;;;5.72;100.00
80733;BME280;70130;44.534;18.678;2024-03-08T07:13:45;99179.41;;;5.79;100.00
80733;BME280;70130;44.534;18.678;2024-03-08T07:16:11;99183.94;;;5.79;100.00
80733;BME280;70130;44.534;18.678;2024-03-08T07:18:37;99186.41;;;5.75;100.00
80733;BME280;70130;44.534;18.678;2024-03-08T07:21:05;99182.34;;;5.78;100.00
80733;BME280;70130;44.534;18.678;2024-03-08T07:23:31;99189.16;;;5.89;100.00
80733;BME280;70130;44.534;18.678;2024-03-08T07:26:15;99184.94;;;5.83;100.00
80733;BME280;70130;44.534;18.678;2024-03-08T07:28:41;99186.78;;;5.87;100.00
80733;BME280;70130;44.534;18.678;2024-03-08T07:31:07;99185.44;;;5.90;100.00
80733;BME280;70130;44.534;18.678;2024-03-08T07:33:42;99186.59;;;5.79;100.00
80733;BME280;70130;44.534;18.678;2024-03-08T07:36:08;99167.41;;;5.82;100.00
80733;BME280;70130;44.534;18.678;2024-03-08T07:38:34;99180.09;;;5.90;100.00
80733;BME280;70130;44.534;18.678;2024-03-08T07:40:59;99181.69;;;5.91;100.00
80733;BME280;70130;44.534;18.678;2024-03-08T07:43:26;99180.31;;;5.93;100.00
80733;BME280;70130;44.534;18.678;2024-03-08T07:45:51;99182.47;;;5.91;100.00
80733;BME280;70130;44.534;18.678;2024-03-08T07:48:19;99170.34;;;5.80;100.00
80733;BME280;70130;44.534;18.678;2024-03-08T07:50:45;99191.03;;;5.88;100.00
80733;BME280;70130;44.534;18.678;2024-03-08T07:53:11;99175.84;;;5.89;100.00
80733;BME280;70130;44.534;18.678;2024-03-08T07:55:37;99180.31;;;5.93;100.00
80733;BME280;70130;44.534;18.678;2024-03-08T07:58:04;99194.06;;;6.00;100.00
80733;BME280;70130;44.534;18.678;2024-03-08T08:00:30;99178.38;;;5.99;100.00
80733;BME280;70130;44.534;18.678;2024-03-08T08:02:59;99193.91;;;6.11;100.00
80733;BME280;70130;44.534;18.678;2024-03-08T08:05:25;99181.66;;;6.10;100.00
80733;BME280;70130;44.534;18.678;2024-03-08T08:07:51;99184.66;;;6.22;100.00
80733;BME280;70130;44.534;18.678;2024-03-08T08:10:18;99178.91;;;6.33;100.00
80733;BME280;70130;44.534;18.678;2024-03-08T08:12:50;99184.50;;;6.32;100.00
80733;BME280;70130;44.534;18.678;2024-03-08T08:15:16;99190.13;;;6.49;100.00
80733;BME280;70130;44.534;18.678;2024-03-08T08:17:44;99175.41;;;6.51;100.00
80733;BME280;70130;44.534;18.678;2024-03-08T08:20:11;99194.28;;;6.55;100.00
80733;BME280;70130;44.534;18.678;2024-03-08T08:22:41;99173.03;;;6.50;100.00
80733;BME280;70130;44.534;18.678;2024-03-08T08:25:08;99178.13;;;6.65;100.00
80733;BME280;70130;44.534;18.678;2024-03-08T08:27:35;99188.09;;;6.73;100.00
80733;BME280;70130;44.534;18.678;2024-03-08T08:30:05;99182.97;;;6.77;100.00
80733;BME280;70130;44.534;18.678;2024-03-08T08:32:37;99199.28;;;6.89;100.00
80733;BME280;70130;44.534;18.678;2024-03-08T08:35:06;99190.00;;;6.86;100.00
80733;BME280;70130;44.534;18.678;2024-03-08T08:37:33;99176.06;;;6.76;100.00
80733;BME280;70130;44.534;18.678;2024-03-08T08:40:01;99195.94;;;6.97;100.00
80733;BME280;70130;44.534;18.678;2024-03-08T08:42:31;99180.47;;;6.67;100.00
80733;BME280;70130;44.534;18.678;2024-03-08T08:44:57;99181.88;;;6.78;100.00
80733;BME280;70130;44.534;18.678;2024-03-08T08:47:23;99198.03;;;7.00;100.00
80733;BME280;70130;44.534;18.678;2024-03-08T08:49:48;99195.19;;;7.10;100.00
80733;BME280;70130;44.534;18.678;2024-03-08T08:52:16;99192.00;;;7.08;100.00
80733;BME280;70130;44.534;18.678;2024-03-08T08:54:42;99195.97;;;7.24;100.00
80733;BME280;70130;44.534;18.678;2024-03-08T08:57:08;99207.53;;;7.33;100.00
80733;BME280;70130;44.534;18.678;2024-03-08T08:59:34;99200.41;;;7.29;100.00
80733;BME280;70130;44.534;18.678;2024-03-08T09:02:06;99194.78;;;7.44;100.00
80733;BME280;70130;44.534;18.678;2024-03-08T09:04:32;99195.66;;;7.53;100.00
80733;BME280;70130;44.534;18.678;2024-03-08T09:06:58;99197.03;;;7.64;100.00
80733;BME280;70130;44.534;18.678;2024-03-08T09:09:24;99184.56;;;7.60;100.00
80733;BME280;70130;44.534;18.678;2024-03-08T09:11:51;99193.16;;;7.70;100.00
80733;BME280;70130;44.534;18.678;2024-03-08T09:14:17;99193.38;;;7.60;97.97
80733;BME280;70130;44.534;18.678;2024-03-08T09:16:42;99188.94;;;7.42;98.93
80733;BME280;70130;44.534;18.678;2024-03-08T09:19:08;99195.84;;;7.57;99.39
80733;BME280;70130;44.534;18.678;2024-03-08T09:21:36;99181.22;;;7.54;99.66
80733;BME280;70130;44.534;18.678;2024-03-08T09:24:02;99179.81;;;7.57;98.53
80733;BME280;70130;44.534;18.678;2024-03-08T09:26:28;99195.47;;;7.63;97.81
80733;BME280;70130;44.534;18.678;2024-03-08T09:28:54;99180.13;;;7.55;97.74
80733;BME280;70130;44.534;18.678;2024-03-08T09:31:22;99187.66;;;7.53;96.55
80733;BME280;70130;44.534;18.678;2024-03-08T09:33:51;99191.09;;;7.67;96.51
80733;BME280;70130;44.534;18.678;2024-03-08T09:36:17;99194.34;;;7.78;96.63
80733;BME280;70130;44.534;18.678;2024-03-08T09:38:43;99178.56;;;7.90;96.81
80733;BME280;70130;44.534;18.678;2024-03-08T09:41:09;99192.03;;;7.85;96.93
80733;BME280;70130;44.534;18.678;2024-03-08T09:43:39;99191.00;;;7.95;98.79
80733;BME280;70130;44.534;18.678;2024-03-08T09:46:05;99161.00;;;7.75;96.95
80733;BME280;70130;44.534;18.678;2024-03-08T09:48:32;99187.22;;;8.09;98.67
80733;BME280;70130;44.534;18.678;2024-03-08T09:50:58;99181.13;;;8.31;97.33
80733;BME280;70130;44.534;18.678;2024-03-08T09:53:24;99189.25;;;8.26;95.11
80733;BME280;70130;44.534;18.678;2024-03-08T09:55:50;99160.56;;;8.18;95.40
80733;BME280;70130;44.534;18.678;2024-03-08T09:58:16;99185.88;;;8.56;95.52
80733;BME280;70130;44.534;18.678;2024-03-08T10:00:52;99167.44;;;8.55;94.38
80733;BME280;70130;44.534;18.678;2024-03-08T10:03:19;99181.53;;;8.69;94.18
80733;BME280;70130;44.534;18.678;2024-03-08T10:05:45;99179.91;;;8.90;93.41
80733;BME280;70130;44.534;18.678;2024-03-08T10:08:12;99178.00;;;9.22;94.67
80733;BME280;70130;44.534;18.678;2024-03-08T10:10:38;99187.44;;;9.19;93.11
80733;BME280;70130;44.534;18.678;2024-03-08T10:13:08;99176.88;;;9.23;93.52
80733;BME280;70130;44.534;18.678;2024-03-08T10:15:33;99170.63;;;9.27;92.63
80733;BME280;70130;44.534;18.678;2024-03-08T10:18:00;99178.97;;;9.34;93.61
80733;BME280;70130;44.534;18.678;2024-03-08T10:20:30;99155.03;;;9.38;93.34
80733;BME280;70130;44.534;18.678;2024-03-08T10:23:03;99178.84;;;9.39;91.80
80733;BME280;70130;44.534;18.678;2024-03-08T10:25:34;99185.94;;;9.44;92.37
80733;BME280;70130;44.534;18.678;2024-03-08T10:28:03;99171.44;;;9.45;91.93
80733;BME280;70130;44.534;18.678;2024-03-08T10:30:30;99172.09;;;9.50;90.93
80733;BME280;70130;44.534;18.678;2024-03-08T10:32:55;99157.63;;;9.51;92.21
80733;BME280;70130;44.534;18.678;2024-03-08T10:35:24;99166.44;;;9.61;91.67
80733;BME280;70130;44.534;18.678;2024-03-08T10:37:56;99159.66;;;9.63;89.52
80733;BME280;70130;44.534;18.678;2024-03-08T10:40:26;99165.50;;;9.74;89.57
80733;BME280;70130;44.534;18.678;2024-03-08T10:42:57;99170.41;;;9.72;89.80
80733;BME280;70130;44.534;18.678;2024-03-08T10:48:16;99165.69;;;9.86;89.51
80733;BME280;70130;44.534;18.678;2024-03-08T10:50:48;99157.97;;;9.76;87.51
80733;BME280;70130;44.534;18.678;2024-03-08T10:53:18;99166.16;;;9.88;88.31
80733;BME280;70130;44.534;18.678;2024-03-08T10:55:47;99139.81;;;9.64;88.36
80733;BME280;70130;44.534;18.678;2024-03-08T10:58:14;99148.34;;;9.83;89.13
80733;BME280;70130;44.534;18.678;2024-03-08T11:00:41;99141.09;;;9.92;88.24
80733;BME280;70130;44.534;18.678;2024-03-08T11:03:07;99141.88;;;9.76;87.88
80733;BME280;70130;44.534;18.678;2024-03-08T11:05:40;99144.56;;;9.84;89.21
80733;BME280;70130;44.534;18.678;2024-03-08T11:10:52;99154.97;;;9.86;89.08
80733;BME280;70130;44.534;18.678;2024-03-08T11:13:33;99147.88;;;9.98;88.63
80733;BME280;70130;44.534;18.678;2024-03-08T11:16:00;99149.59;;;9.94;87.47
80733;BME280;70130;44.534;18.678;2024-03-08T11:18:28;99151.50;;;9.94;88.01
80733;BME280;70130;44.534;18.678;2024-03-08T11:20:54;99157.00;;;9.89;88.59
80733;BME280;70130;44.534;18.678;2024-03-08T11:23:23;99147.84;;;9.73;87.56
80733;BME280;70130;44.534;18.678;2024-03-08T11:25:49;99146.91;;;9.77;87.43
80733;BME280;70130;44.534;18.678;2024-03-08T11:28:20;99133.84;;;9.84;87.15
80733;BME280;70130;44.534;18.678;2024-03-08T11:33:35;99124.38;;;9.78;86.75
80733;BME280;70130;44.534;18.678;2024-03-08T11:36:07;99125.78;;;9.59;86.12
80733;BME280;70130;44.534;18.678;2024-03-08T11:38:46;99133.84;;;9.93;86.85
80733;BME280;70130;44.534;18.678;2024-03-08T11:41:21;99108.28;;;10.04;84.75
80733;BME280;70130;44.534;18.678;2024-03-08T11:43:48;99108.94;;;10.18;83.03
80733;BME280;70130;44.534;18.678;2024-03-08T11:46:15;99117.91;;;10.05;84.89
80733;BME280;70130;44.534;18.678;2024-03-08T11:48:42;99129.06;;;10.42;84.64
80733;BME280;70130;44.534;18.678;2024-03-08T11:51:11;99115.84;;;10.45;83.34
80733;BME280;70130;44.534;18.678;2024-03-08T11:53:39;99117.03;;;10.65;84.65
80733;BME280;70130;44.534;18.678;2024-03-08T11:56:12;99125.72;;;10.62;82.48
80733;BME280;70130;44.534;18.678;2024-03-08T11:58:38;99122.16;;;10.41;82.49
80733;BME280;70130;44.534;18.678;2024-03-08T12:01:09;99109.53;;;10.32;81.83
80733;BME280;70130;44.534;18.678;2024-03-08T12:03:41;99106.88;;;10.15;83.61
80733;BME280;70130;44.534;18.678;2024-03-08T12:06:10;99093.59;;;10.27;83.26
80733;BME280;70130;44.534;18.678;2024-03-08T12:08:36;99101.69;;;10.19;82.99
80733;BME280;70130;44.534;18.678;2024-03-08T12:11:04;99101.19;;;10.25;82.43
80733;BME280;70130;44.534;18.678;2024-03-08T12:13:32;99094.19;;;10.42;84.27
80733;BME280;70130;44.534;18.678;2024-03-08T12:16:02;99095.44;;;10.53;82.05
80733;BME280;70130;44.534;18.678;2024-03-08T12:18:33;99091.16;;;10.60;82.58
80733;BME280;70130;44.534;18.678;2024-03-08T12:21:12;99097.03;;;10.54;81.95
80733;BME280;70130;44.534;18.678;2024-03-08T12:23:39;99093.81;;;10.69;83.33
80733;BME280;70130;44.534;18.678;2024-03-08T12:26:13;99084.88;;;10.94;82.18
80733;BME280;70130;44.534;18.678;2024-03-08T12:28:45;99080.53;;;10.72;81.99
80733;BME280;70130;44.534;18.678;2024-03-08T12:31:29;99075.84;;;10.61;82.34
80733;BME280;70130;44.534;18.678;2024-03-08T12:33:55;99043.00;;;10.26;82.53
80733;BME280;70130;44.534;18.678;2024-03-08T12:36:24;99077.59;;;10.57;82.58
80733;BME280;70130;44.534;18.678;2024-03-08T12:38:53;99076.63;;;10.61;82.04
80733;BME280;70130;44.534;18.678;2024-03-08T12:41:22;99077.88;;;10.64;82.50
80733;BME280;70130;44.534;18.678;2024-03-08T12:43:48;99062.91;;;10.63;83.08
80733;BME280;70130;44.534;18.678;2024-03-08T12:46:18;99070.41;;;10.78;81.84
80733;BME280;70130;44.534;18.678;2024-03-08T12:48:48;99068.97;;;10.80;81.42
80733;BME280;70130;44.534;18.678;2024-03-08T12:51:14;99052.09;;;10.80;80.92
80733;BME280;70130;44.534;18.678;2024-03-08T12:53:42;99064.97;;;10.95;81.03
80733;BME280;70130;44.534;18.678;2024-03-08T12:56:10;99064.50;;;10.93;80.92
80733;BME280;70130;44.534;18.678;2024-03-08T12:58:38;99049.69;;;10.87;80.77
80733;BME280;70130;44.534;18.678;2024-03-08T13:01:04;99053.66;;;10.81;80.34
80733;BME280;70130;44.534;18.678;2024-03-08T13:03:33;99058.56;;;10.79;80.20